createdAt,value
2022-10-15T00:01:17.790Z,3.72
2022-10-15T00:03:45.737Z,4.40
2022-10-15T00:06:16.430Z,5.78
2022-10-15T00:08:44.554Z,7.45
2022-10-15T00:11:14.860Z,4.60
2022-10-15T00:13:42.962Z,6.45
2022-10-15T00:16:13.900Z,6.80
2022-10-15T00:18:41.565Z,11.70
2022-10-15T00:21:11.105Z,4.18
2022-10-15T00:23:38.623Z,5.30
2022-10-15T00:26:09.293Z,4.78
2022-10-15T00:28:36.374Z,11.15
2022-10-15T00:31:07.156Z,4.13
2022-10-15T00:33:34.647Z,7.93
2022-10-15T00:36:11.946Z,3.72
2022-10-15T00:38:39.649Z,4.35
2022-10-15T00:41:10.555Z,2.00
2022-10-15T00:43:58.995Z,2.17
2022-10-15T00:46:37.297Z,3.05
2022-10-15T00:49:29.800Z,2.95
2022-10-15T00:52:06.401Z,7.93
2022-10-15T00:54:40.637Z,4.45
2022-10-15T00:57:09.657Z,3.88
2022-10-15T00:59:41.962Z,3.90
2022-10-15T01:02:10.806Z,2.20
2022-10-15T01:04:38.400Z,5.57
2022-10-15T01:07:06.726Z,5.28
2022-10-15T01:09:34.572Z,2.75
2022-10-15T01:12:03.625Z,5.93
2022-10-15T01:14:42.182Z,1.55
2022-10-15T01:17:25.968Z,3.67
2022-10-15T01:19:53.345Z,4.50
2022-10-15T01:22:46.749Z,2.47
2022-10-15T01:29:48.000Z,1.95
2022-10-15T01:32:37.527Z,5.88
2022-10-15T01:35:11.585Z,5.47
2022-10-15T01:38:37.078Z,2.10
2022-10-15T01:41:23.282Z,5.53
2022-10-15T01:44:06.991Z,3.20
2022-10-15T01:47:06.648Z,6.20
2022-10-15T01:49:40.585Z,3.28
2022-10-15T01:52:21.252Z,7.97
2022-10-15T01:54:50.642Z,11.48
2022-10-15T01:57:20.591Z,7.32
2022-10-15T01:59:47.845Z,1.55
2022-10-15T02:02:15.657Z,2.63
2022-10-15T02:04:42.691Z,1.30
2022-10-15T02:07:24.215Z,2.50
2022-10-15T02:09:59.264Z,1.58
2022-10-15T02:13:02.962Z,1.08
2022-10-15T02:15:39.399Z,1.45
2022-10-15T02:18:15.501Z,1.20
2022-10-15T02:20:56.055Z,3.55
2022-10-15T02:23:39.969Z,0.70
2022-10-15T02:26:09.385Z,1.83
2022-10-15T02:28:40.441Z,3.88
2022-10-15T02:31:09.821Z,2.28
2022-10-15T02:33:38.464Z,2.95
2022-10-15T02:36:06.597Z,3.88
2022-10-15T02:38:37.464Z,6.53
2022-10-15T02:44:17.640Z,3.90
2022-10-15T02:46:44.666Z,5.63
2022-10-15T02:49:13.675Z,3.42
2022-10-15T02:51:40.917Z,2.92
2022-10-15T02:54:08.285Z,5.78
2022-10-15T02:56:35.757Z,3.20
2022-10-15T02:59:05.790Z,6.40
2022-10-15T03:01:34.193Z,1.50
2022-10-15T03:04:01.860Z,2.42
2022-10-15T03:06:29.587Z,5.35
2022-10-15T03:08:56.906Z,1.83
2022-10-15T03:11:24.692Z,2.65
2022-10-15T03:13:52.259Z,2.28
2022-10-15T03:16:21.126Z,2.00
2022-10-15T03:18:48.247Z,2.20
2022-10-15T03:21:16.368Z,3.92
2022-10-15T03:23:44.183Z,2.15
2022-10-15T03:26:17.394Z,3.10
2022-10-15T03:28:44.971Z,3.40
2022-10-15T03:31:18.702Z,4.18
2022-10-15T03:33:48.920Z,6.07
2022-10-15T03:36:17.818Z,2.13
2022-10-15T03:38:45.174Z,2.00
2022-10-15T03:41:14.257Z,2.03
2022-10-15T03:43:43.066Z,4.85
2022-10-15T03:46:10.788Z,6.22
2022-10-15T03:48:42.329Z,2.17
2022-10-15T03:51:12.065Z,6.97
2022-10-15T03:53:40.883Z,7.78
2022-10-15T03:56:08.132Z,3.70
2022-10-15T03:58:38.443Z,5.05
2022-10-15T04:01:15.519Z,3.88
2022-10-15T04:03:42.706Z,2.45
2022-10-15T04:06:10.319Z,2.97
2022-10-15T04:08:38.414Z,3.53
2022-10-15T04:11:20.795Z,4.77
2022-10-15T04:13:56.612Z,5.43
2022-10-15T04:16:23.861Z,6.40
2022-10-15T04:18:50.864Z,2.13
2022-10-15T04:21:18.641Z,2.38
2022-10-15T04:23:50.390Z,2.30
2022-10-15T04:26:29.074Z,10.63
2022-10-15T04:28:59.188Z,5.50
2022-10-15T04:31:27.679Z,3.63
2022-10-15T04:33:54.732Z,5.68
2022-10-15T04:36:21.799Z,4.43
2022-10-15T04:39:03.310Z,4.57
2022-10-15T04:41:39.441Z,4.60
2022-10-15T04:44:13.352Z,2.63
2022-10-15T04:46:43.969Z,4.47
2022-10-15T04:49:31.226Z,3.38
2022-10-15T04:51:58.347Z,6.93
2022-10-15T04:54:29.442Z,2.85
2022-10-15T04:57:04.514Z,3.10
2022-10-15T04:59:31.953Z,5.57
2022-10-15T05:02:37.387Z,8.73
2022-10-15T05:05:32.587Z,5.47
2022-10-15T05:08:04.447Z,5.15
2022-10-15T05:10:38.325Z,7.47
2022-10-15T05:13:07.737Z,4.38
2022-10-15T05:15:37.617Z,5.90
2022-10-15T05:18:07.590Z,5.43
2022-10-15T05:20:43.774Z,7.25
2022-10-15T05:23:15.501Z,5.72
2022-10-15T05:25:51.663Z,4.35
2022-10-15T05:28:23.439Z,5.05
2022-10-15T05:30:50.498Z,3.58
2022-10-15T05:33:17.484Z,4.68
2022-10-15T05:35:44.478Z,5.57
2022-10-15T05:38:11.474Z,9.95
2022-10-15T05:40:39.937Z,5.68
2022-10-15T05:43:17.294Z,8.02
2022-10-15T05:45:44.256Z,6.40
2022-10-15T05:48:11.254Z,5.82
2022-10-15T05:50:38.270Z,5.05
2022-10-15T05:53:09.325Z,5.85
2022-10-15T05:55:45.190Z,6.35
2022-10-15T05:58:12.215Z,7.95
2022-10-15T06:00:41.934Z,8.00
2022-10-15T06:03:13.125Z,6.57
2022-10-15T06:05:40.389Z,7.82
2022-10-15T06:08:07.491Z,9.20
2022-10-15T06:10:37.853Z,11.57
2022-10-15T06:13:05.989Z,14.07
2022-10-15T06:15:33.858Z,10.40
2022-10-15T06:18:01.951Z,6.47
2022-10-15T06:20:28.900Z,7.72
2022-10-15T06:22:59.481Z,7.28
2022-10-15T06:25:27.064Z,9.32
2022-10-15T06:27:54.283Z,12.20
2022-10-15T06:30:24.519Z,6.47
2022-10-15T06:32:53.041Z,8.73
2022-10-15T06:35:22.487Z,9.25
2022-10-15T06:37:49.732Z,7.85
2022-10-15T06:40:17.172Z,7.70
2022-10-15T06:42:44.206Z,11.15
2022-10-15T06:45:11.842Z,8.43
2022-10-15T06:47:41.628Z,10.25
2022-10-15T06:50:09.271Z,7.18
2022-10-15T06:52:37.311Z,7.20
2022-10-15T06:55:05.059Z,8.75
2022-10-15T06:57:32.068Z,8.50
2022-10-15T06:59:59.130Z,8.20
2022-10-15T07:02:26.412Z,10.25
2022-10-15T07:04:53.603Z,9.48
2022-10-15T07:07:20.711Z,8.85
2022-10-15T07:09:48.038Z,9.70
2022-10-15T07:12:16.277Z,12.18
2022-10-15T07:14:43.282Z,10.65
2022-10-15T07:17:10.281Z,9.18
2022-10-15T07:19:37.334Z,8.55
2022-10-15T07:22:04.293Z,8.95
2022-10-15T07:24:31.312Z,8.77
2022-10-15T07:26:58.610Z,10.68
2022-10-15T07:29:25.613Z,9.50
2022-10-15T07:31:52.678Z,10.00
2022-10-15T07:34:19.705Z,9.77
2022-10-15T07:36:46.683Z,7.32
2022-10-15T07:39:14.170Z,6.15
2022-10-15T07:41:41.150Z,7.18
2022-10-15T07:44:08.190Z,7.07
2022-10-15T07:46:35.180Z,8.18
2022-10-15T07:49:02.259Z,7.00
2022-10-15T07:51:29.320Z,7.97
2022-10-15T07:53:56.321Z,18.92
2022-10-15T07:56:23.296Z,7.07
2022-10-15T07:58:53.175Z,6.30
2022-10-15T08:01:21.444Z,7.43
2022-10-15T08:03:48.769Z,9.00
2022-10-15T08:06:16.375Z,6.63
2022-10-15T08:08:43.835Z,7.18
2022-10-15T08:11:13.631Z,7.03
2022-10-15T08:13:42.260Z,12.88
2022-10-15T08:16:11.113Z,7.18
2022-10-15T08:18:39.310Z,7.57
2022-10-15T08:21:07.785Z,6.15
2022-10-15T08:23:35.798Z,6.13
2022-10-15T08:26:03.651Z,10.63
2022-10-15T08:28:32.630Z,6.65
2022-10-15T08:31:04.587Z,10.15
2022-10-15T08:33:34.833Z,3.17
2022-10-15T08:36:02.300Z,6.57
2022-10-15T08:38:30.512Z,3.55
2022-10-15T08:41:00.281Z,3.22
2022-10-15T08:43:39.925Z,6.32
2022-10-15T08:46:21.581Z,4.63
2022-10-15T08:48:55.352Z,3.03
2022-10-15T08:51:28.362Z,3.67
2022-10-15T08:54:00.161Z,4.07
2022-10-15T08:56:32.482Z,14.67
2022-10-15T08:59:07.715Z,4.18
2022-10-15T09:01:39.810Z,3.40
2022-10-15T09:04:12.566Z,1.38
2022-10-15T09:06:40.373Z,4.68
2022-10-15T09:09:47.949Z,1.50
2022-10-15T09:12:48.358Z,1.27
2022-10-15T09:15:22.632Z,0.93
2022-10-15T09:17:54.365Z,2.30
2022-10-15T09:20:33.470Z,1.15
2022-10-15T09:23:00.751Z,0.80
2022-10-15T09:25:35.394Z,1.10
2022-10-15T09:28:12.717Z,3.28
2022-10-15T09:30:51.421Z,2.67
2022-10-15T09:33:39.889Z,0.47
2022-10-15T09:36:30.012Z,1.05
2022-10-15T09:39:21.505Z,0.50
2022-10-15T09:42:16.678Z,2.00
2022-10-15T09:44:46.821Z,0.43
2022-10-15T09:47:27.949Z,0.30
2022-10-15T09:50:01.162Z,0.30
2022-10-15T09:53:03.078Z,2.05
2022-10-15T09:56:03.285Z,0.30
2022-10-15T09:58:37.717Z,0.20
2022-10-15T10:01:07.522Z,0.63
2022-10-15T10:03:36.313Z,1.95
2022-10-15T10:06:08.944Z,2.45
2022-10-15T10:08:58.019Z,2.25
2022-10-15T10:11:27.469Z,1.75
2022-10-15T10:13:59.871Z,1.10
2022-10-15T10:16:28.757Z,1.45
2022-10-15T10:19:12.702Z,2.03
2022-10-15T10:21:42.750Z,2.65
2022-10-15T10:24:31.833Z,4.30
2022-10-15T10:26:59.790Z,3.40
2022-10-15T10:29:35.713Z,1.13
2022-10-15T10:32:27.082Z,0.43
2022-10-15T10:34:54.800Z,0.40
2022-10-15T10:37:22.821Z,2.00
2022-10-15T10:39:55.840Z,6.38
2022-10-15T10:44:53.098Z,1.50
2022-10-15T10:47:25.054Z,0.38
2022-10-15T10:49:58.075Z,0.15
2022-10-15T10:52:25.019Z,1.55
2022-10-15T10:55:20.163Z,1.10
2022-10-15T10:57:56.689Z,0.20
2022-10-15T11:00:52.591Z,0.20
2022-10-15T11:03:36.873Z,3.83
2022-10-15T11:06:09.800Z,0.32
2022-10-15T11:08:50.831Z,0.95
2022-10-15T11:11:27.821Z,4.00
2022-10-15T11:14:08.261Z,6.97
2022-10-15T11:17:00.327Z,0.70
2022-10-15T11:23:02.754Z,1.35
2022-10-15T11:25:43.953Z,3.75
2022-10-15T11:28:47.962Z,1.65
2022-10-15T11:31:55.050Z,3.17
2022-10-15T11:34:55.248Z,1.63
2022-10-15T11:37:35.237Z,1.13
2022-10-15T11:40:43.922Z,0.77
2022-10-15T11:43:25.022Z,1.38
2022-10-15T11:46:19.522Z,0.20
2022-10-15T11:48:51.934Z,2.95
2022-10-15T11:51:29.954Z,6.10
2022-10-15T11:54:06.808Z,0.30
2022-10-15T11:56:41.445Z,1.05
2022-10-15T11:59:54.377Z,0.10
2022-10-15T12:02:31.548Z,1.45
2022-10-15T12:05:04.825Z,1.65
2022-10-15T12:07:42.454Z,1.45
2022-10-15T12:10:46.489Z,1.13
2022-10-15T12:13:35.311Z,0.82
2022-10-15T12:16:20.283Z,0.68
2022-10-15T12:18:58.632Z,0.68
2022-10-15T12:21:46.544Z,8.77
2022-10-15T12:24:38.320Z,2.80
2022-10-15T12:27:35.512Z,2.33
2022-10-15T12:30:02.758Z,1.05
2022-10-15T12:32:37.351Z,0.32
2022-10-15T12:37:52.858Z,2.58
2022-10-15T12:40:22.323Z,1.33
2022-10-15T12:42:53.189Z,4.13
2022-10-15T12:45:40.232Z,4.10
2022-10-15T12:48:16.698Z,0.20
2022-10-15T12:50:46.560Z,1.55
2022-10-15T12:53:33.080Z,3.65
2022-10-15T12:56:15.188Z,2.25
2022-10-15T12:58:53.610Z,5.38
2022-10-15T13:01:20.845Z,5.05
2022-10-15T13:03:51.004Z,1.17
2022-10-15T13:06:20.806Z,0.20
2022-10-15T13:08:55.184Z,2.50
2022-10-15T13:11:29.843Z,3.88
2022-10-15T13:14:13.061Z,1.17
2022-10-15T13:16:48.271Z,0.40
2022-10-15T13:19:28.826Z,4.43
2022-10-15T13:21:59.866Z,0.77
2022-10-15T13:24:38.495Z,0.85
2022-10-15T13:27:21.329Z,3.30
2022-10-15T13:32:50.963Z,2.20
2022-10-15T13:35:23.417Z,1.77
2022-10-15T13:37:50.496Z,0.57
2022-10-15T13:40:21.746Z,0.88
2022-10-15T13:43:22.115Z,0.38
2022-10-15T13:45:53.432Z,0.63
2022-10-15T13:48:23.973Z,0.17
2022-10-15T13:51:00.265Z,2.95
2022-10-15T13:53:30.692Z,1.08
2022-10-15T13:56:00.686Z,0.57
2022-10-15T13:58:34.329Z,2.00
2022-10-15T14:01:25.424Z,2.22
2022-10-15T14:03:59.341Z,0.38
2022-10-15T14:06:33.003Z,1.60
2022-10-15T14:09:11.022Z,1.58
2022-10-15T14:11:39.875Z,0.38
2022-10-15T14:14:31.864Z,0.57
2022-10-15T14:17:01.268Z,1.10
2022-10-15T14:19:30.224Z,0.90
2022-10-15T14:21:59.149Z,2.65
2022-10-15T14:24:35.723Z,1.30
2022-10-15T14:27:06.536Z,2.70
2022-10-15T14:29:49.242Z,3.88
2022-10-15T14:32:26.829Z,0.68
2022-10-15T14:34:58.878Z,0.95
2022-10-15T14:37:37.115Z,0.40
2022-10-15T14:40:13.133Z,1.00
2022-10-15T14:42:41.754Z,1.65
2022-10-15T14:45:17.819Z,1.30
2022-10-15T14:47:48.655Z,2.65
2022-10-15T14:50:17.359Z,0.20
2022-10-15T14:52:47.765Z,0.90
2022-10-15T14:55:40.588Z,0.93
2022-10-15T14:58:15.665Z,0.82
2022-10-15T15:00:45.757Z,1.50
2022-10-15T15:03:22.292Z,0.98
2022-10-15T15:05:57.055Z,13.40
2022-10-15T15:08:25.686Z,2.65
2022-10-15T15:10:56.520Z,1.67
2022-10-15T15:13:31.039Z,3.95
2022-10-15T15:15:58.282Z,0.30
2022-10-15T15:18:25.306Z,0.85
2022-10-15T15:20:52.834Z,0.10
2022-10-15T15:23:29.922Z,2.60
2022-10-15T15:25:57.022Z,3.40
2022-10-15T15:28:27.078Z,1.27
2022-10-15T15:30:58.390Z,0.52
2022-10-15T15:33:25.567Z,1.48
2022-10-15T15:36:17.570Z,0.20
2022-10-15T15:38:49.721Z,1.23
2022-10-15T15:41:22.199Z,0.30
2022-10-15T15:43:49.880Z,3.97
2022-10-15T15:46:16.905Z,4.20
2022-10-15T15:48:44.062Z,1.95
2022-10-15T15:51:20.832Z,1.42
2022-10-15T15:53:48.577Z,0.38
2022-10-15T15:56:15.612Z,1.45
2022-10-15T15:58:42.662Z,1.20
2022-10-15T16:01:09.758Z,1.98
2022-10-15T16:03:36.752Z,2.70
2022-10-15T16:06:07.441Z,0.88
2022-10-15T16:08:35.410Z,2.30
2022-10-15T16:11:03.831Z,0.82
2022-10-15T16:13:31.241Z,0.30
2022-10-15T16:15:58.638Z,2.88
2022-10-15T16:18:25.653Z,0.73
2022-10-15T16:20:52.952Z,6.20
2022-10-15T16:23:19.961Z,0.45
2022-10-15T16:25:46.945Z,0.82
2022-10-15T16:28:14.034Z,2.38
2022-10-15T16:30:41.109Z,2.10
2022-10-15T16:35:40.308Z,0.28
2022-10-15T16:38:08.470Z,4.13
2022-10-15T16:40:35.490Z,2.38
2022-10-15T16:43:02.481Z,6.88
2022-10-15T16:45:29.549Z,2.72
2022-10-15T16:47:56.748Z,0.55
2022-10-15T16:50:23.896Z,3.17
2022-10-15T16:52:50.875Z,1.35
2022-10-15T16:55:17.875Z,4.90
2022-10-15T16:57:45.037Z,0.57
2022-10-15T17:00:12.460Z,0.40
2022-10-15T17:02:39.584Z,2.25
2022-10-15T17:05:07.263Z,0.90
2022-10-15T17:07:34.355Z,0.80
2022-10-15T17:10:01.808Z,0.30
2022-10-15T17:12:28.984Z,0.50
2022-10-15T17:14:56.151Z,1.58
2022-10-15T17:17:23.257Z,1.88
2022-10-15T17:19:50.265Z,10.68
2022-10-15T17:22:17.315Z,4.30
2022-10-15T17:24:44.416Z,2.10
2022-10-15T17:27:11.459Z,0.52
2022-10-15T17:29:38.611Z,1.00
2022-10-15T17:32:05.638Z,0.95
2022-10-15T17:34:33.054Z,4.35
2022-10-15T17:37:00.080Z,4.00
2022-10-15T17:39:27.114Z,1.95
2022-10-15T17:41:54.167Z,3.22
2022-10-15T17:44:21.219Z,4.13
2022-10-15T17:49:18.646Z,1.15
2022-10-15T17:51:46.692Z,0.77
2022-10-15T17:54:14.202Z,4.80
2022-10-15T17:56:41.528Z,0.85
2022-10-15T17:59:12.090Z,1.33
2022-10-15T18:01:59.147Z,2.60
2022-10-15T18:04:29.088Z,1.80
2022-10-15T18:06:56.122Z,6.22
2022-10-15T18:09:26.940Z,9.27
2022-10-15T18:12:00.353Z,2.75
2022-10-15T18:14:33.754Z,6.32
2022-10-15T18:17:00.890Z,5.45
2022-10-15T18:19:28.142Z,4.70
2022-10-15T18:21:55.619Z,2.20
2022-10-15T18:24:23.714Z,0.88
2022-10-15T18:26:51.618Z,1.65
2022-10-15T18:29:18.863Z,2.20
2022-10-15T18:31:47.071Z,1.42
2022-10-15T18:34:14.108Z,2.42
2022-10-15T18:36:43.451Z,1.65
2022-10-15T18:39:11.328Z,1.75
2022-10-15T18:41:40.000Z,7.68
2022-10-15T18:44:13.464Z,2.88
2022-10-15T18:46:42.061Z,3.42
2022-10-15T18:49:09.233Z,0.82
2022-10-15T18:51:36.287Z,1.17
2022-10-15T18:54:04.030Z,4.50
2022-10-15T18:56:31.011Z,7.53
2022-10-15T18:58:58.012Z,5.68
2022-10-15T19:01:29.252Z,4.05
2022-10-15T19:03:58.267Z,5.65
2022-10-15T19:06:29.003Z,3.13
2022-10-15T19:09:00.545Z,7.13
2022-10-15T19:11:30.967Z,1.70
2022-10-15T19:14:00.451Z,2.78
2022-10-15T19:16:28.310Z,1.70
2022-10-15T19:19:00.926Z,7.15
2022-10-15T19:21:28.090Z,3.33
2022-10-15T19:23:55.134Z,2.22
2022-10-15T19:26:22.409Z,9.13
2022-10-15T19:28:51.657Z,2.85
2022-10-15T19:31:27.926Z,5.63
2022-10-15T19:33:57.848Z,4.45
2022-10-15T19:36:28.919Z,2.60
2022-10-15T19:38:56.498Z,4.55
2022-10-15T19:41:23.582Z,3.78
2022-10-15T19:43:52.000Z,8.00
2022-10-15T19:46:19.282Z,3.47
2022-10-15T19:48:48.081Z,3.42
2022-10-15T19:51:15.356Z,10.00
2022-10-15T19:53:42.515Z,5.75
2022-10-15T19:56:11.235Z,2.67
2022-10-15T19:58:38.241Z,3.95
2022-10-15T20:01:05.744Z,4.00
2022-10-15T20:03:33.886Z,5.72
2022-10-15T20:06:08.825Z,7.20
2022-10-15T20:08:36.434Z,2.28
2022-10-15T20:11:06.918Z,8.65
2022-10-15T20:13:35.334Z,4.75
2022-10-15T20:16:10.783Z,7.32
2022-10-15T20:18:37.785Z,6.50
2022-10-15T20:21:13.792Z,5.00
2022-10-15T20:23:41.917Z,10.88
2022-10-15T20:26:12.058Z,8.75
2022-10-15T20:28:40.332Z,7.10
2022-10-15T20:31:09.618Z,10.85
2022-10-15T20:33:37.600Z,6.80
2022-10-15T20:36:07.680Z,6.32
2022-10-15T20:38:35.690Z,7.05
2022-10-15T20:41:08.100Z,9.90
2022-10-15T20:43:35.429Z,2.40
2022-10-15T20:46:02.667Z,8.85
2022-10-15T20:48:30.874Z,4.75
2022-10-15T20:50:58.132Z,8.88
2022-10-15T20:53:25.914Z,3.20
2022-10-15T20:55:53.094Z,7.72
2022-10-15T20:58:20.123Z,12.13
2022-10-15T21:00:47.159Z,5.22
2022-10-15T21:03:15.028Z,4.90
2022-10-15T21:05:41.998Z,5.63
2022-10-15T21:08:09.048Z,7.55
2022-10-15T21:10:36.289Z,6.80
2022-10-15T21:13:03.726Z,11.02
2022-10-15T21:15:30.892Z,7.03
2022-10-15T21:17:58.462Z,4.93
2022-10-15T21:20:26.870Z,5.95
2022-10-15T21:22:53.910Z,9.38
2022-10-15T21:25:20.990Z,6.05
2022-10-15T21:27:48.048Z,21.35
2022-10-15T21:30:15.094Z,12.25
2022-10-15T21:32:42.070Z,10.15
2022-10-15T21:35:09.242Z,9.50
2022-10-15T21:37:37.977Z,11.02
2022-10-15T21:40:07.509Z,8.30
2022-10-15T21:42:34.581Z,16.05
2022-10-15T21:45:01.612Z,14.80
2022-10-15T21:47:28.975Z,19.70
2022-10-15T21:49:56.166Z,12.25
2022-10-15T21:52:23.188Z,7.72
2022-10-15T21:54:50.162Z,10.88
2022-10-15T21:57:17.184Z,9.02
2022-10-15T21:59:44.221Z,4.22
2022-10-15T22:02:11.406Z,12.50
2022-10-15T22:04:38.513Z,10.00
2022-10-15T22:07:08.770Z,9.15
2022-10-15T22:09:36.079Z,11.10
2022-10-15T22:12:03.120Z,12.57
2022-10-15T22:14:30.451Z,24.55
2022-10-15T22:16:57.977Z,4.43
2022-10-15T22:19:24.979Z,11.18
2022-10-15T22:21:51.942Z,6.85
2022-10-15T22:24:20.199Z,9.00
2022-10-15T22:26:50.592Z,8.48
2022-10-15T22:29:23.971Z,9.90
2022-10-15T22:31:52.267Z,4.07
2022-10-15T22:34:20.717Z,8.50
2022-10-15T22:36:47.855Z,6.00
2022-10-15T22:39:16.553Z,13.13
2022-10-15T22:41:45.949Z,12.63
2022-10-15T22:44:18.125Z,7.82
2022-10-15T22:46:46.100Z,9.07
2022-10-15T22:49:14.082Z,14.18
2022-10-15T22:51:41.483Z,14.50
2022-10-15T22:54:08.860Z,11.88
2022-10-15T22:56:36.877Z,8.98
2022-10-15T22:59:04.104Z,20.25
2022-10-15T23:01:32.773Z,5.63
2022-10-15T23:04:03.299Z,10.98
2022-10-15T23:06:32.178Z,9.57
2022-10-15T23:08:59.635Z,7.10
2022-10-15T23:11:32.069Z,9.27
2022-10-15T23:14:02.470Z,7.15
2022-10-15T23:16:35.271Z,18.80
2022-10-15T23:21:37.764Z,14.68
2022-10-15T23:24:06.555Z,10.40
2022-10-15T23:26:34.355Z,7.32
2022-10-15T23:29:03.825Z,5.18
2022-10-15T23:31:33.324Z,7.40
2022-10-15T23:34:02.172Z,14.60
2022-10-15T23:36:30.294Z,17.48
2022-10-15T23:38:59.714Z,16.85
2022-10-15T23:41:28.169Z,7.78
2022-10-15T23:43:55.888Z,26.77
2022-10-15T23:46:23.134Z,7.88
2022-10-15T23:48:50.570Z,9.05
2022-10-15T23:51:24.548Z,6.60
2022-10-15T23:53:52.706Z,11.65
2022-10-15T23:56:20.734Z,10.82
2022-10-15T23:58:54.438Z,9.10
